createdAt,value
2017-05-15T00:07:45.093Z,12.4
2017-05-15T00:17:55.445Z,12.7
2017-05-15T00:28:05.898Z,12
2017-05-15T00:38:16.220Z,11.9
2017-05-15T00:48:26.694Z,12
2017-05-15T00:58:37.142Z,12
2017-05-15T01:08:47.628Z,11.5
2017-05-15T01:18:58.159Z,11.6
2017-05-15T01:29:08.696Z,11.5
2017-05-15T01:39:19.301Z,11.2
2017-05-15T01:49:29.874Z,11.4
2017-05-15T01:59:40.472Z,11.2
2017-05-15T02:09:51.070Z,10.8
2017-05-15T02:20:01.664Z,11.4
2017-05-15T02:30:12.191Z,11.2
2017-05-15T02:40:22.688Z,11.2
2017-05-15T02:50:33.175Z,10.9
2017-05-15T03:00:43.685Z,10.3
2017-05-15T03:10:54.171Z,10.7
2017-05-15T03:21:04.705Z,11
2017-05-15T03:31:15.230Z,10.9
2017-05-15T03:41:25.684Z,10.7
2017-05-15T03:51:36.180Z,10.7
2017-05-15T04:01:46.611Z,11.3
2017-05-15T04:11:56.939Z,11.2
2017-05-15T04:22:07.156Z,11.2
2017-05-15T04:32:17.195Z,11.5
2017-05-15T04:42:27.113Z,11.6
2017-05-15T04:52:36.944Z,11.8
2017-05-15T05:02:46.687Z,11.9
2017-05-15T05:12:56.309Z,12
2017-05-15T05:23:05.726Z,12.4
2017-05-15T05:33:15.096Z,12.4
2017-05-15T05:43:24.298Z,12.7
2017-05-15T05:53:33.453Z,13.2
2017-05-15T06:03:42.539Z,13.6
2017-05-15T06:13:51.537Z,13.6
2017-05-15T06:24:00.365Z,14.3
2017-05-15T06:34:09.085Z,14.6
2017-05-15T06:44:17.681Z,15.1
2017-05-15T06:54:26.192Z,15.2
2017-05-15T07:04:34.652Z,14.7
2017-05-15T07:14:43.121Z,14.9
2017-05-15T07:24:51.485Z,14.8
2017-05-15T07:34:59.825Z,15.8
2017-05-15T07:45:08.059Z,15.3
2017-05-15T07:55:16.279Z,15.8
2017-05-15T08:05:24.342Z,15.5
2017-05-15T08:15:32.394Z,16.3
2017-05-15T08:25:40.369Z,16.5
2017-05-15T08:35:48.287Z,16.8
2017-05-15T08:45:56.122Z,16.8
2017-05-15T08:56:03.956Z,17.2
2017-05-15T09:06:11.750Z,17.6
2017-05-15T09:16:19.521Z,17.8
2017-05-15T09:26:27.260Z,18.4
2017-05-15T09:36:34.878Z,18
2017-05-15T09:46:42.465Z,18.5
2017-05-15T09:56:49.972Z,17.8
2017-05-15T10:06:57.427Z,19.5
2017-05-15T10:17:04.934Z,18.4
2017-05-15T10:27:12.443Z,19
2017-05-15T10:37:19.673Z,18.7
2017-05-15T10:47:26.899Z,19.1
2017-05-15T10:57:34.238Z,18.7
2017-05-15T11:07:41.608Z,19.5
2017-05-15T11:17:49.036Z,18.9
2017-05-15T11:27:56.572Z,19.4
2017-05-15T11:38:03.918Z,19.2
2017-05-15T11:48:11.514Z,19.3
2017-05-15T11:58:19.070Z,19.1
2017-05-15T12:08:26.578Z,19.8
2017-05-15T12:18:33.990Z,19.7
2017-05-15T12:28:41.443Z,19.5
2017-05-15T12:38:48.849Z,20
2017-05-15T12:48:56.221Z,20.4
2017-05-15T12:59:03.522Z,19.9
2017-05-15T13:09:10.767Z,20.1
2017-05-15T13:19:17.965Z,19.6
2017-05-15T13:29:25.369Z,20.3
2017-05-15T13:39:32.715Z,20.8
2017-05-15T13:49:40.054Z,20.8
2017-05-15T13:59:47.498Z,21
2017-05-15T14:09:54.888Z,20.8
2017-05-15T14:20:02.171Z,21.4
2017-05-15T14:30:09.399Z,21.2
2017-05-15T14:40:16.523Z,21.2
2017-05-15T14:50:23.661Z,20.8
2017-05-15T15:00:30.878Z,20.8
2017-05-15T15:10:38.073Z,20.6
2017-05-15T15:20:45.539Z,21.6
2017-05-15T15:30:53.174Z,20.8
2017-05-15T15:41:00.644Z,21.2
2017-05-15T15:51:07.912Z,21.2
2017-05-15T16:01:15.104Z,21.2
2017-05-15T16:11:22.370Z,21.2
2017-05-15T16:21:29.687Z,21.6
2017-05-15T16:31:36.969Z,21.4
2017-05-15T16:41:44.288Z,20.6
2017-05-15T16:51:51.726Z,21.3
2017-05-15T17:01:59.311Z,21.1
2017-05-15T17:12:07.176Z,20.9
2017-05-15T17:22:15.151Z,20.6
2017-05-15T17:32:23.198Z,20.7
2017-05-15T17:42:31.328Z,20.3
2017-05-15T17:52:39.695Z,19.9
2017-05-15T18:02:48.229Z,19.7
2017-05-15T18:12:56.904Z,19.6
2017-05-15T18:23:05.692Z,19.3
2017-05-15T18:33:14.566Z,19.2
2017-05-15T18:43:23.531Z,19.1
2017-05-15T18:53:32.551Z,18.8
2017-05-15T19:03:41.637Z,19
2017-05-15T19:13:50.813Z,19.1
2017-05-15T19:24:00.056Z,19
2017-05-15T19:34:09.352Z,18.7
2017-05-15T19:44:18.623Z,18.6
2017-05-15T19:54:27.930Z,18.5
2017-05-15T20:04:37.223Z,18.7
2017-05-15T20:14:46.551Z,18.5
2017-05-15T20:24:55.979Z,18.4
2017-05-15T20:35:05.303Z,18.6
2017-05-15T20:45:14.652Z,18.5
2017-05-15T20:55:23.999Z,18.5
2017-05-15T21:05:33.326Z,18.3
2017-05-15T21:15:42.634Z,18
2017-05-15T21:25:51.981Z,17.9
2017-05-15T21:36:01.377Z,18
2017-05-15T21:46:10.726Z,17.9
2017-05-15T21:56:20.121Z,17.8
2017-05-15T22:06:29.548Z,17.7
2017-05-15T22:16:39.031Z,17.7
2017-05-15T22:26:48.509Z,17.6
2017-05-15T22:36:57.995Z,17.5
2017-05-15T22:47:07.477Z,17.5
2017-05-15T22:57:16.928Z,17.5
2017-05-15T23:07:26.398Z,17.4
2017-05-15T23:17:35.882Z,17.4
2017-05-15T23:27:45.408Z,17.2
2017-05-15T23:37:54.947Z,17.3
2017-05-15T23:48:04.524Z,17.1
2017-05-15T23:58:14.143Z,17.1
